createdAt,value
2019-01-04T00:00:22.574Z,5.28
2019-01-04T00:02:51.753Z,5.08
2019-01-04T00:05:20.835Z,6.15
2019-01-04T00:07:49.891Z,6.42
2019-01-04T00:10:18.971Z,5.78
2019-01-04T00:12:48.039Z,5.35
2019-01-04T00:15:17.116Z,2.92
2019-01-04T00:17:46.172Z,5.58
2019-01-04T00:20:15.218Z,4.50
2019-01-04T00:22:44.260Z,4.47
2019-01-04T00:25:13.383Z,6.33
2019-01-04T00:27:43.503Z,6.62
2019-01-04T00:30:12.863Z,6.08
2019-01-04T00:32:41.981Z,4.95
2019-01-04T00:35:11.044Z,6.10
2019-01-04T00:37:40.088Z,6.25
2019-01-04T00:40:09.495Z,7.12
2019-01-04T00:42:38.552Z,6.30
2019-01-04T00:45:10.981Z,6.10
2019-01-04T00:47:40.174Z,4.97
2019-01-04T00:50:09.480Z,7.05
2019-01-04T00:52:38.627Z,3.70
2019-01-04T00:55:41.765Z,3.30
2019-01-04T00:58:37.489Z,6.28
2019-01-04T01:02:08.698Z,6.00
2019-01-04T01:05:13.099Z,4.08
2019-01-04T01:08:13.875Z,7.45
2019-01-04T01:11:26.924Z,4.62
2019-01-04T01:14:37.142Z,5.78
2019-01-04T01:17:41.841Z,6.25
2019-01-04T01:20:52.329Z,4.42
2019-01-04T01:24:03.495Z,5.25
2019-01-04T01:27:05.992Z,4.33
2019-01-04T01:30:14.949Z,8.05
2019-01-04T01:32:59.090Z,3.67
2019-01-04T01:35:44.105Z,3.65
2019-01-04T01:38:53.107Z,5.60
2019-01-04T01:41:47.569Z,5.25
2019-01-04T01:44:43.400Z,6.17
2019-01-04T01:47:20.507Z,4.60
2019-01-04T01:50:14.930Z,8.68
2019-01-04T01:52:46.736Z,3.08
2019-01-04T01:55:15.839Z,3.75
2019-01-04T01:57:44.975Z,5.20
2019-01-04T02:00:14.097Z,5.53
2019-01-04T02:02:43.153Z,5.40
2019-01-04T02:05:12.215Z,4.30
2019-01-04T02:07:41.281Z,2.20
2019-01-04T02:10:10.422Z,3.17
2019-01-04T02:12:39.494Z,2.33
2019-01-04T02:15:08.803Z,3.67
2019-01-04T02:17:37.917Z,2.75
2019-01-04T02:20:07.337Z,3.12
2019-01-04T02:22:36.335Z,9.58
2019-01-04T02:25:05.911Z,2.47
2019-01-04T02:27:34.893Z,2.52
2019-01-04T02:30:04.672Z,2.40
2019-01-04T02:32:33.702Z,2.92
2019-01-04T02:35:02.709Z,4.03
2019-01-04T02:37:31.711Z,4.40
2019-01-04T02:40:00.801Z,3.10
2019-01-04T02:42:29.934Z,3.20
2019-01-04T02:44:59.048Z,4.65
2019-01-04T02:47:28.118Z,5.50
2019-01-04T02:49:57.103Z,2.60
2019-01-04T02:52:26.194Z,3.27
2019-01-04T02:54:55.207Z,4.83
2019-01-04T02:57:24.206Z,4.08
2019-01-04T02:59:53.287Z,1.98
2019-01-04T03:02:23.371Z,5.08
2019-01-04T03:04:52.444Z,2.22
2019-01-04T03:07:21.509Z,3.65
2019-01-04T03:09:50.564Z,4.75
2019-01-04T03:12:19.780Z,3.05
2019-01-04T03:14:48.914Z,2.25
2019-01-04T03:17:18.150Z,2.65
2019-01-04T03:19:47.366Z,5.58
2019-01-04T03:22:16.460Z,4.47
2019-01-04T03:24:45.568Z,2.85
2019-01-04T03:27:20.488Z,4.95
2019-01-04T03:29:49.504Z,2.17
2019-01-04T03:32:18.401Z,4.87
2019-01-04T03:34:47.384Z,4.33
2019-01-04T03:37:16.309Z,5.80
2019-01-04T03:39:45.350Z,3.77
2019-01-04T03:42:14.450Z,2.77
2019-01-04T03:44:43.531Z,4.70
2019-01-04T03:47:12.656Z,4.87
2019-01-04T03:49:41.830Z,3.02
2019-01-04T03:52:10.854Z,4.85
2019-01-04T03:54:39.969Z,5.12
2019-01-04T03:57:09.074Z,2.58
2019-01-04T03:59:38.124Z,2.58
2019-01-04T04:02:07.178Z,2.77
2019-01-04T04:04:36.263Z,3.37
2019-01-04T04:07:05.333Z,2.70
2019-01-04T04:09:43.864Z,2.15
2019-01-04T04:12:12.973Z,1.65
2019-01-04T04:14:42.093Z,3.30
2019-01-04T04:17:11.233Z,4.92
2019-01-04T04:19:40.352Z,4.05
2019-01-04T04:22:09.472Z,4.90
2019-01-04T04:24:38.582Z,3.92
2019-01-04T04:27:10.134Z,4.47
2019-01-04T04:29:39.292Z,5.03
2019-01-04T04:32:08.379Z,3.72
2019-01-04T04:34:37.721Z,5.00
2019-01-04T04:37:06.698Z,5.55
2019-01-04T04:39:35.604Z,1.75
2019-01-04T04:42:04.660Z,3.22
2019-01-04T04:44:34.820Z,1.80
2019-01-04T04:47:04.917Z,2.60
2019-01-04T04:49:33.904Z,5.58
2019-01-04T04:52:02.946Z,3.05
2019-01-04T04:54:32.275Z,3.60
2019-01-04T04:57:01.433Z,2.77
2019-01-04T04:59:30.443Z,2.33
2019-01-04T05:01:59.456Z,2.52
2019-01-04T05:04:28.504Z,6.60
2019-01-04T05:06:57.602Z,2.70
2019-01-04T05:09:26.611Z,2.87
2019-01-04T05:11:55.609Z,3.40
2019-01-04T05:14:24.686Z,3.22
2019-01-04T05:16:53.649Z,3.25
2019-01-04T05:19:22.720Z,3.70
2019-01-04T05:21:51.845Z,3.02
2019-01-04T05:24:21.066Z,3.12
2019-01-04T05:26:50.196Z,4.62
2019-01-04T05:29:19.178Z,4.72
2019-01-04T05:31:48.257Z,7.30
2019-01-04T05:34:17.314Z,5.58
2019-01-04T05:37:04.914Z,5.92
2019-01-04T05:39:33.994Z,5.05
2019-01-04T05:42:03.120Z,5.83
2019-01-04T05:44:32.298Z,3.12
2019-01-04T05:47:01.404Z,6.55
2019-01-04T05:49:31.584Z,4.95
2019-01-04T05:52:00.711Z,2.92
2019-01-04T05:54:29.791Z,4.00
2019-01-04T05:56:58.933Z,6.15
2019-01-04T05:59:28.029Z,5.15
2019-01-04T06:01:57.165Z,9.18
2019-01-04T06:04:26.293Z,5.35
2019-01-04T06:06:55.524Z,3.90
2019-01-04T06:09:27.635Z,4.50
2019-01-04T06:11:56.756Z,3.30
2019-01-04T06:14:25.900Z,6.33
2019-01-04T06:16:55.042Z,4.87
2019-01-04T06:19:24.160Z,7.45
2019-01-04T06:21:53.269Z,6.80
2019-01-04T06:24:22.454Z,4.70
2019-01-04T06:26:52.124Z,5.72
2019-01-04T06:29:21.367Z,5.20
2019-01-04T06:31:50.465Z,8.63
2019-01-04T06:34:19.581Z,6.05
2019-01-04T06:36:48.806Z,6.10
2019-01-04T06:39:17.899Z,8.23
2019-01-04T06:41:47.049Z,6.78
2019-01-04T06:44:16.166Z,10.90
2019-01-04T06:47:15.700Z,7.30
2019-01-04T06:49:45.139Z,9.05
2019-01-04T06:52:14.407Z,12.60
2019-01-04T06:55:40.099Z,9.33
2019-01-04T06:58:09.207Z,9.88
2019-01-04T07:00:39.380Z,5.62
2019-01-04T07:03:08.386Z,7.15
2019-01-04T07:05:37.388Z,9.53
2019-01-04T07:08:06.355Z,9.03
2019-01-04T07:10:35.416Z,7.58
2019-01-04T07:13:04.569Z,8.58
2019-01-04T07:15:33.580Z,8.28
2019-01-04T07:18:02.607Z,12.98
2019-01-04T07:20:31.660Z,9.85
2019-01-04T07:23:00.713Z,11.33
2019-01-04T07:25:29.844Z,13.15
2019-01-04T07:28:00.359Z,12.20
2019-01-04T07:30:29.433Z,8.55
2019-01-04T07:32:58.509Z,11.55
2019-01-04T07:35:27.619Z,11.48
2019-01-04T07:37:56.699Z,10.75
2019-01-04T07:40:25.755Z,12.00
2019-01-04T07:42:54.792Z,16.67
2019-01-04T07:45:26.619Z,12.63
2019-01-04T07:47:55.722Z,18.48
2019-01-04T07:50:24.760Z,18.00
2019-01-04T07:52:55.290Z,19.25
2019-01-04T07:55:24.350Z,18.77
2019-01-04T07:57:53.458Z,23.75
2019-01-04T08:00:22.909Z,20.10
2019-01-04T08:02:53.469Z,22.73
2019-01-04T08:05:26.844Z,26.25
2019-01-04T08:07:55.880Z,23.77
2019-01-04T08:10:24.997Z,22.67
2019-01-04T08:12:53.986Z,17.73
2019-01-04T08:15:23.075Z,21.05
2019-01-04T08:17:52.261Z,19.77
2019-01-04T08:20:21.429Z,21.75
2019-01-04T08:22:50.480Z,18.35
2019-01-04T08:25:19.540Z,18.60
2019-01-04T08:27:51.592Z,20.97
2019-01-04T08:30:21.348Z,16.97
2019-01-04T08:32:50.366Z,24.50
2019-01-04T08:35:19.654Z,23.95
2019-01-04T08:37:48.804Z,19.57
2019-01-04T08:40:20.713Z,18.00
2019-01-04T08:42:49.994Z,19.60
2019-01-04T08:45:19.260Z,25.85
2019-01-04T08:47:48.560Z,22.85
2019-01-04T08:50:17.643Z,24.90
2019-01-04T08:52:46.730Z,19.87
2019-01-04T08:55:27.673Z,22.27
2019-01-04T08:57:56.775Z,20.05
2019-01-04T09:00:25.954Z,19.35
2019-01-04T09:02:55.141Z,21.80
2019-01-04T09:05:25.567Z,22.85
2019-01-04T09:07:54.711Z,22.60
2019-01-04T09:10:23.828Z,20.90
2019-01-04T09:12:52.817Z,21.07
2019-01-04T09:15:21.900Z,21.25
2019-01-04T09:17:50.966Z,22.32
2019-01-04T09:20:20.043Z,27.58
2019-01-04T09:22:49.049Z,24.07
2019-01-04T09:25:18.146Z,34.20
2019-01-04T09:27:48.277Z,27.95
2019-01-04T09:30:17.447Z,24.57
2019-01-04T09:32:46.605Z,24.35
2019-01-04T09:35:15.665Z,29.95
2019-01-04T09:37:45.357Z,26.23
2019-01-04T09:40:15.336Z,21.02
2019-01-04T09:42:47.083Z,24.65
2019-01-04T09:45:16.739Z,24.40
2019-01-04T09:47:46.641Z,23.07
2019-01-04T09:50:16.930Z,28.38
2019-01-04T09:52:47.109Z,19.92
2019-01-04T09:55:16.762Z,21.73
2019-01-04T09:57:46.499Z,19.65
2019-01-04T10:00:19.119Z,22.27
2019-01-04T10:02:48.183Z,21.17
2019-01-04T10:05:17.267Z,18.10
2019-01-04T10:07:46.419Z,18.45
2019-01-04T10:10:15.567Z,17.10
2019-01-04T10:12:44.633Z,18.82
2019-01-04T10:15:15.892Z,17.52
2019-01-04T10:17:44.942Z,14.60
2019-01-04T10:20:14.068Z,14.85
2019-01-04T10:22:44.287Z,15.70
2019-01-04T10:25:13.944Z,14.70
2019-01-04T10:27:46.780Z,13.18
2019-01-04T10:30:27.579Z,7.75
2019-01-04T10:32:57.033Z,7.25
2019-01-04T10:35:26.106Z,10.40
2019-01-04T10:37:55.370Z,8.48
2019-01-04T10:40:25.555Z,8.83
2019-01-04T10:42:54.855Z,7.70
2019-01-04T10:45:24.154Z,9.05
2019-01-04T10:47:53.721Z,9.78
2019-01-04T10:50:22.965Z,5.65
2019-01-04T10:52:52.207Z,6.80
2019-01-04T10:55:21.449Z,6.87
2019-01-04T10:57:50.928Z,6.40
2019-01-04T11:00:20.397Z,6.45
2019-01-04T11:02:49.493Z,7.93
2019-01-04T11:05:18.676Z,9.15
2019-01-04T11:07:47.706Z,8.05
2019-01-04T11:10:16.788Z,6.15
2019-01-04T11:12:45.828Z,10.28
2019-01-04T11:15:14.831Z,9.55
2019-01-04T11:17:43.879Z,8.95
2019-01-04T11:20:48.808Z,9.15
2019-01-04T11:23:58.882Z,9.58
2019-01-04T11:26:35.267Z,8.35
2019-01-04T11:29:16.344Z,9.80
2019-01-04T11:32:13.783Z,8.50
2019-01-04T11:35:26.937Z,8.60
2019-01-04T11:38:07.620Z,12.75
2019-01-04T11:41:20.714Z,10.05
2019-01-04T11:44:16.686Z,11.50
2019-01-04T11:47:25.924Z,16.23
2019-01-04T11:50:12.917Z,9.90
2019-01-04T11:52:47.697Z,12.60
2019-01-04T11:55:16.756Z,14.05
2019-01-04T11:57:45.783Z,11.48
2019-01-04T12:00:14.964Z,12.13
2019-01-04T12:02:45.595Z,11.83
2019-01-04T12:05:16.424Z,18.12
2019-01-04T12:07:45.508Z,12.55
2019-01-04T12:10:14.680Z,14.35
2019-01-04T12:12:43.757Z,17.80
2019-01-04T12:15:12.825Z,12.88
2019-01-04T12:17:41.931Z,11.22
2019-01-04T12:20:11.058Z,10.48
2019-01-04T12:22:40.090Z,8.35
2019-01-04T12:25:09.166Z,12.78
2019-01-04T12:27:38.121Z,11.20
2019-01-04T12:30:08.233Z,9.30
2019-01-04T12:32:37.236Z,9.58
2019-01-04T12:35:06.331Z,12.55
2019-01-04T12:37:35.363Z,13.60
2019-01-04T12:40:04.465Z,16.55
2019-01-04T12:42:33.629Z,15.40
2019-01-04T12:45:02.782Z,21.80
2019-01-04T12:47:31.932Z,17.65
2019-01-04T12:50:01.007Z,15.20
2019-01-04T12:52:30.134Z,17.52
2019-01-04T12:54:59.597Z,17.23
2019-01-04T12:57:29.012Z,15.88
2019-01-04T12:59:58.378Z,19.25
2019-01-04T13:02:27.574Z,22.65
2019-01-04T13:04:56.628Z,19.98
2019-01-04T13:07:25.835Z,21.95
2019-01-04T13:09:57.795Z,18.57
2019-01-04T13:12:26.931Z,17.87
2019-01-04T13:14:55.995Z,15.98
2019-01-04T13:17:25.083Z,13.95
2019-01-04T13:19:54.417Z,15.70
2019-01-04T13:22:23.561Z,11.78
2019-01-04T13:24:52.550Z,14.90
2019-01-04T13:27:22.688Z,19.05
2019-01-04T13:29:51.887Z,15.30
2019-01-04T13:32:21.007Z,14.90
2019-01-04T13:34:50.212Z,16.57
2019-01-04T13:37:19.452Z,15.38
2019-01-04T13:39:48.872Z,14.70
2019-01-04T13:42:17.853Z,15.40
2019-01-04T13:44:46.921Z,12.53
2019-01-04T13:47:15.990Z,15.38
2019-01-04T13:49:45.059Z,12.10
2019-01-04T13:52:14.243Z,12.63
2019-01-04T13:54:43.748Z,13.08
2019-01-04T13:57:12.998Z,18.35
2019-01-04T13:59:42.209Z,10.05
2019-01-04T14:02:11.405Z,12.33
2019-01-04T14:04:40.619Z,7.78
2019-01-04T14:07:09.792Z,11.18
2019-01-04T14:09:41.672Z,12.45
2019-01-04T14:12:10.715Z,12.90
2019-01-04T14:14:39.776Z,14.47
2019-01-04T14:17:08.922Z,11.70
2019-01-04T14:19:38.086Z,15.20
2019-01-04T14:22:07.238Z,12.68
2019-01-04T14:24:36.457Z,19.20
2019-01-04T14:27:05.475Z,17.15
2019-01-04T14:29:35.010Z,17.02
2019-01-04T14:32:04.131Z,20.25
2019-01-04T14:34:33.261Z,18.05
2019-01-04T14:37:19.053Z,17.02
2019-01-04T14:39:48.265Z,20.20
2019-01-04T14:42:17.451Z,21.10
2019-01-04T14:44:46.512Z,19.05
2019-01-04T14:47:15.638Z,14.25
2019-01-04T14:49:44.748Z,15.48
2019-01-04T14:52:14.136Z,18.52
2019-01-04T14:54:43.596Z,8.78
2019-01-04T14:57:12.910Z,10.58
2019-01-04T14:59:42.295Z,11.08
2019-01-04T15:02:11.545Z,10.75
2019-01-04T15:04:40.775Z,11.78
2019-01-04T15:07:10.320Z,14.03
2019-01-04T15:09:43.166Z,8.65
2019-01-04T15:12:12.336Z,12.90
2019-01-04T15:14:41.462Z,13.72
2019-01-04T15:17:10.654Z,11.00
2019-01-04T15:19:39.834Z,11.10
2019-01-04T15:22:08.985Z,10.43
2019-01-04T15:24:38.177Z,9.75
2019-01-04T15:27:08.465Z,8.98
2019-01-04T15:29:37.704Z,10.13
2019-01-04T15:32:06.873Z,17.55
2019-01-04T15:34:36.264Z,12.20
2019-01-04T15:37:05.521Z,10.75
2019-01-04T15:39:34.774Z,14.23
2019-01-04T15:42:03.854Z,9.83
2019-01-04T15:44:33.028Z,11.15
2019-01-04T15:47:03.270Z,11.25
2019-01-04T15:49:32.380Z,11.70
2019-01-04T15:52:01.417Z,13.65
2019-01-04T15:54:30.727Z,9.83
2019-01-04T15:56:59.847Z,8.65
2019-01-04T15:59:28.937Z,12.30
2019-01-04T16:01:58.081Z,11.28
2019-01-04T16:04:27.182Z,9.28
2019-01-04T16:06:56.233Z,12.30
2019-01-04T16:09:25.298Z,12.20
2019-01-04T16:11:54.358Z,9.25
2019-01-04T16:14:26.224Z,8.70
2019-01-04T16:16:55.407Z,8.28
2019-01-04T16:19:24.494Z,12.03
2019-01-04T16:21:53.650Z,12.60
2019-01-04T16:24:22.682Z,10.15
2019-01-04T16:26:51.817Z,13.38
2019-01-04T16:29:20.839Z,8.58
2019-01-04T16:31:49.905Z,11.45
2019-01-04T16:34:18.965Z,11.43
2019-01-04T16:36:48.391Z,17.12
2019-01-04T16:39:17.828Z,9.73
2019-01-04T16:41:47.227Z,17.17
2019-01-04T16:44:16.227Z,11.08
2019-01-04T16:46:45.441Z,11.78
2019-01-04T16:49:14.520Z,13.88
2019-01-04T16:51:43.513Z,11.33
2019-01-04T16:54:12.581Z,9.93
2019-01-04T16:56:41.906Z,14.85
2019-01-04T16:59:11.232Z,16.95
2019-01-04T17:01:40.485Z,11.75
2019-01-04T17:04:09.602Z,25.55
2019-01-04T17:06:38.645Z,9.80
2019-01-04T17:09:11.655Z,11.43
2019-01-04T17:11:40.722Z,13.22
2019-01-04T17:14:09.888Z,12.30
2019-01-04T17:16:38.953Z,11.80
2019-01-04T17:19:10.142Z,9.08
2019-01-04T17:21:39.293Z,12.53
2019-01-04T17:24:08.325Z,11.68
2019-01-04T17:26:37.562Z,14.33
2019-01-04T17:29:06.768Z,14.00
2019-01-04T17:31:35.993Z,12.05
2019-01-04T17:34:05.112Z,19.73
2019-01-04T17:36:34.351Z,13.62
2019-01-04T17:39:04.312Z,21.10
2019-01-04T17:41:33.382Z,8.35
2019-01-04T17:44:02.432Z,12.20
2019-01-04T17:46:31.491Z,13.05
2019-01-04T17:49:00.583Z,9.78
2019-01-04T17:51:29.578Z,15.48
2019-01-04T17:53:58.693Z,11.05
2019-01-04T17:56:27.773Z,9.88
2019-01-04T17:58:56.749Z,11.43
2019-01-04T18:01:25.823Z,12.10
2019-01-04T18:03:54.957Z,12.68
2019-01-04T18:06:24.023Z,12.23
2019-01-04T18:08:53.135Z,9.30
2019-01-04T18:11:22.194Z,9.23
2019-01-04T18:13:51.261Z,12.05
2019-01-04T18:16:20.377Z,15.40
2019-01-04T18:18:52.779Z,13.45
2019-01-04T18:21:21.870Z,20.35
2019-01-04T18:23:50.903Z,12.00
2019-01-04T18:26:24.372Z,13.95
2019-01-04T18:28:50.666Z,13.75
2019-01-04T18:31:19.700Z,17.75
2019-01-04T18:33:48.794Z,17.82
2019-01-04T18:36:23.719Z,11.80
2019-01-04T18:38:52.676Z,21.68
2019-01-04T18:41:22.601Z,15.13
2019-01-04T18:43:51.768Z,14.63
2019-01-04T18:46:20.849Z,15.83
2019-01-04T18:48:49.837Z,14.53
2019-01-04T18:51:18.941Z,18.42
2019-01-04T18:53:48.007Z,13.45
2019-01-04T18:56:18.182Z,12.65
2019-01-04T18:58:47.317Z,15.48
2019-01-04T19:01:16.498Z,13.65
2019-01-04T19:03:45.583Z,9.38
2019-01-04T19:06:14.646Z,12.70
2019-01-04T19:08:44.743Z,16.97
2019-01-04T19:11:14.200Z,13.88
2019-01-04T19:13:43.248Z,12.45
2019-01-04T19:16:12.278Z,10.58
2019-01-04T19:18:43.151Z,12.73
2019-01-04T19:21:12.142Z,10.45
2019-01-04T19:23:41.182Z,12.20
2019-01-04T19:26:10.271Z,13.00
2019-01-04T19:28:39.260Z,14.75
2019-01-04T19:31:08.467Z,10.15
2019-01-04T19:33:37.602Z,13.43
2019-01-04T19:36:09.531Z,11.25
2019-01-04T19:38:38.548Z,10.68
2019-01-04T19:41:07.610Z,15.25
2019-01-04T19:43:36.711Z,12.15
2019-01-04T19:46:05.772Z,14.98
2019-01-04T19:48:34.917Z,11.68
2019-01-04T19:51:04.020Z,10.50
2019-01-04T19:53:33.030Z,11.35
2019-01-04T19:56:02.020Z,11.97
2019-01-04T19:58:31.090Z,11.20
2019-01-04T20:01:01.289Z,9.25
2019-01-04T20:03:30.435Z,13.95
2019-01-04T20:07:26.152Z,9.30
2019-01-04T20:10:57.440Z,7.60
2019-01-04T20:14:33.309Z,16.02
2019-01-04T20:17:19.886Z,12.07
2019-01-04T20:20:22.248Z,11.03
2019-01-04T20:23:08.964Z,12.10
2019-01-04T20:26:15.241Z,13.85
2019-01-04T20:29:01.664Z,17.42
2019-01-04T20:31:49.801Z,17.65
2019-01-04T20:34:46.526Z,10.28
2019-01-04T20:37:49.441Z,13.40
2019-01-04T20:40:53.252Z,11.25
2019-01-04T20:43:40.974Z,12.90
2019-01-04T20:46:47.090Z,9.65
2019-01-04T20:49:47.303Z,14.87
2019-01-04T20:52:31.231Z,5.97
2019-01-04T20:55:31.162Z,14.03
2019-01-04T20:58:25.222Z,13.75
2019-01-04T21:01:14.491Z,9.15
2019-01-04T21:04:04.515Z,9.63
2019-01-04T21:06:43.652Z,6.95
2019-01-04T21:09:40.663Z,9.58
2019-01-04T21:12:28.780Z,7.65
2019-01-04T21:15:22.749Z,9.60
2019-01-04T21:18:13.710Z,10.60
2019-01-04T21:20:53.928Z,8.03
2019-01-04T21:23:44.634Z,11.03
2019-01-04T21:26:31.215Z,9.83
2019-01-04T21:29:37.409Z,8.93
2019-01-04T21:32:23.951Z,11.78
2019-01-04T21:35:10.518Z,7.33
2019-01-04T21:37:50.655Z,11.80
2019-01-04T21:40:38.805Z,9.80
2019-01-04T21:43:45.079Z,9.55
2019-01-04T21:46:32.836Z,12.45
2019-01-04T21:49:33.069Z,7.28
2019-01-04T21:52:36.137Z,7.30
2019-01-04T21:55:22.696Z,8.43
2019-01-04T21:58:28.756Z,9.98
2019-01-04T22:01:18.129Z,8.53
2019-01-04T22:04:05.108Z,11.68
2019-01-04T22:06:51.587Z,6.67
2019-01-04T22:09:54.412Z,16.48
2019-01-04T22:12:37.804Z,7.95
2019-01-04T22:15:24.245Z,5.85
2019-01-04T22:18:22.193Z,8.43
2019-01-04T22:21:19.062Z,4.62
2019-01-04T22:24:05.459Z,7.40
2019-01-04T22:26:54.011Z,7.35
2019-01-04T22:29:37.474Z,10.00
2019-01-04T22:32:31.587Z,8.93
2019-01-04T22:35:13.761Z,12.63
2019-01-04T22:38:16.714Z,3.95
2019-01-04T22:41:19.618Z,9.08
2019-01-04T22:44:22.731Z,9.75
2019-01-04T22:47:15.019Z,10.50
2019-01-04T22:49:53.424Z,5.78
2019-01-04T22:52:39.906Z,9.65
2019-01-04T22:55:42.935Z,7.28
2019-01-04T22:58:40.007Z,10.53
2019-01-04T23:01:30.920Z,6.60
2019-01-04T23:04:17.850Z,7.40
2019-01-04T23:07:11.878Z,6.75
2019-01-04T23:09:58.261Z,5.42
2019-01-04T23:12:55.437Z,7.15
2019-01-04T23:15:46.610Z,8.20
2019-01-04T23:18:37.666Z,9.08
2019-01-04T23:22:03.904Z,7.37
2019-01-04T23:25:07.151Z,8.15
2019-01-04T23:27:53.508Z,15.18
2019-01-04T23:30:40.131Z,7.85
2019-01-04T23:33:30.053Z,7.30
2019-01-04T23:36:22.958Z,11.15
2019-01-04T23:39:22.763Z,11.85
2019-01-04T23:42:16.943Z,4.92
2019-01-04T23:45:03.525Z,6.62
2019-01-04T23:47:49.605Z,8.08
2019-01-04T23:50:52.804Z,8.70
2019-01-04T23:53:39.458Z,11.48
2019-01-04T23:56:18.499Z,9.75
2019-01-04T23:59:02.743Z,7.08
